createdAt,value
2018-07-31T00:04:10.373Z,4.60
2018-07-31T00:09:07.691Z,4.95
2018-07-31T00:14:02.922Z,4.62
2018-07-31T00:18:57.668Z,5.03
2018-07-31T00:23:52.402Z,4.55
2018-07-31T00:28:47.570Z,4.60
2018-07-31T00:33:42.336Z,4.75
2018-07-31T00:38:36.981Z,4.78
2018-07-31T00:43:32.102Z,4.85
2018-07-31T00:48:26.781Z,4.47
2018-07-31T00:53:21.451Z,4.75
2018-07-31T00:58:16.234Z,4.60
2018-07-31T01:03:10.949Z,5.12
2018-07-31T01:08:05.753Z,4.83
2018-07-31T01:13:00.362Z,5.00
2018-07-31T01:17:54.973Z,4.53
2018-07-31T01:22:49.736Z,5.17
2018-07-31T01:27:44.467Z,5.15
2018-07-31T01:32:39.227Z,4.70
2018-07-31T01:37:33.984Z,5.10
2018-07-31T01:42:28.824Z,5.22
2018-07-31T01:47:23.438Z,5.28
2018-07-31T01:52:18.125Z,4.90
2018-07-31T01:57:13.202Z,4.72
2018-07-31T02:02:08.435Z,5.03
2018-07-31T02:07:03.339Z,4.85
2018-07-31T02:11:57.977Z,4.97
2018-07-31T02:16:52.662Z,4.62
2018-07-31T02:21:47.983Z,4.72
2018-07-31T02:26:42.293Z,5.35
2018-07-31T02:31:36.859Z,5.35
2018-07-31T02:36:31.600Z,5.22
2018-07-31T02:41:26.794Z,4.92
2018-07-31T02:46:21.448Z,5.00
2018-07-31T02:51:16.422Z,5.37
2018-07-31T02:56:11.044Z,5.08
2018-07-31T03:01:05.836Z,4.97
2018-07-31T03:06:00.449Z,5.20
2018-07-31T03:10:55.066Z,5.57
2018-07-31T03:15:49.683Z,5.70
2018-07-31T03:20:44.312Z,4.93
2018-07-31T03:25:38.942Z,5.30
2018-07-31T03:30:33.527Z,5.27
2018-07-31T03:35:28.128Z,5.40
2018-07-31T03:40:22.786Z,4.93
2018-07-31T03:45:17.423Z,5.33
2018-07-31T03:50:12.139Z,5.10
2018-07-31T03:55:06.874Z,4.73
2018-07-31T04:00:01.708Z,5.43
2018-07-31T04:04:56.309Z,5.60
2018-07-31T04:09:51.752Z,5.77
2018-07-31T04:14:46.519Z,5.13
2018-07-31T04:19:40.908Z,5.33
2018-07-31T04:24:35.781Z,5.90
2018-07-31T04:29:30.380Z,5.77
2018-07-31T04:34:25.315Z,5.40
2018-07-31T04:39:19.949Z,5.57
2018-07-31T04:44:15.043Z,5.23
2018-07-31T04:49:09.841Z,5.87
2018-07-31T04:54:04.488Z,5.87
2018-07-31T04:58:59.191Z,5.57
2018-07-31T05:03:53.863Z,5.87
2018-07-31T05:08:48.814Z,5.83
2018-07-31T05:13:43.466Z,5.47
2018-07-31T05:18:38.115Z,5.50
2018-07-31T05:23:32.729Z,5.97
2018-07-31T05:28:27.347Z,5.55
2018-07-31T05:33:21.958Z,5.83
2018-07-31T05:38:16.819Z,5.97
2018-07-31T05:43:11.514Z,5.35
2018-07-31T05:48:06.622Z,5.65
2018-07-31T05:53:01.241Z,5.70
2018-07-31T05:57:56.045Z,5.90
2018-07-31T06:02:50.713Z,5.80
2018-07-31T06:07:45.495Z,7.10
2018-07-31T06:12:40.256Z,7.08
2018-07-31T06:17:35.613Z,6.78
2018-07-31T06:22:30.250Z,6.93
2018-07-31T06:27:24.914Z,6.60
2018-07-31T06:32:19.563Z,7.83
2018-07-31T06:37:14.203Z,6.20
2018-07-31T06:42:09.727Z,6.80
2018-07-31T06:47:05.249Z,6.75
2018-07-31T06:51:59.923Z,6.55
2018-07-31T06:56:54.604Z,6.90
2018-07-31T07:01:50.065Z,6.30
2018-07-31T07:06:44.826Z,6.55
2018-07-31T07:11:39.602Z,7.00
2018-07-31T07:16:34.420Z,6.42
2018-07-31T07:21:29.099Z,6.22
2018-07-31T07:26:24.460Z,6.85
2018-07-31T07:31:19.165Z,6.58
2018-07-31T07:36:13.792Z,6.50
2018-07-31T07:41:08.870Z,6.40
2018-07-31T07:46:03.529Z,7.10
2018-07-31T07:50:58.410Z,6.40
2018-07-31T07:56:02.215Z,6.75
2018-07-31T08:00:56.867Z,7.35
2018-07-31T08:05:51.496Z,7.55
2018-07-31T08:10:46.254Z,6.85
2018-07-31T08:15:41.067Z,7.05
2018-07-31T08:20:35.808Z,7.03
2018-07-31T08:25:30.551Z,6.65
2018-07-31T08:30:25.312Z,6.42
2018-07-31T08:35:19.961Z,6.40
2018-07-31T08:40:14.615Z,6.05
2018-07-31T08:45:09.419Z,5.97
2018-07-31T08:50:04.143Z,5.83
2018-07-31T08:54:58.739Z,5.60
2018-07-31T08:59:53.532Z,5.40
2018-07-31T09:04:48.208Z,5.47
2018-07-31T09:09:42.945Z,5.70
2018-07-31T09:14:37.712Z,5.45
2018-07-31T09:19:32.371Z,5.97
2018-07-31T09:24:26.841Z,5.60
2018-07-31T09:29:22.421Z,5.55
2018-07-31T09:34:17.049Z,5.90
2018-07-31T09:39:12.692Z,6.20
2018-07-31T09:44:08.483Z,5.80
2018-07-31T09:49:03.131Z,5.72
2018-07-31T09:53:57.751Z,5.90
2018-07-31T09:58:52.406Z,5.78
2018-07-31T10:03:47.359Z,6.25
2018-07-31T10:08:43.571Z,6.37
2018-07-31T10:13:38.296Z,5.40
2018-07-31T10:34:38.450Z,5.40
2018-07-31T10:39:33.928Z,5.28
2018-07-31T10:44:28.968Z,5.95
2018-07-31T10:49:24.251Z,5.28
2018-07-31T10:54:18.919Z,5.40
2018-07-31T10:59:13.765Z,5.03
2018-07-31T11:04:08.544Z,4.97
2018-07-31T11:09:03.299Z,5.25
2018-07-31T11:13:58.387Z,5.70
2018-07-31T11:18:53.672Z,5.12
2018-07-31T11:23:48.303Z,4.83
2018-07-31T11:28:42.941Z,4.70
2018-07-31T11:33:37.554Z,4.72
2018-07-31T11:38:32.331Z,4.30
2018-07-31T11:43:26.985Z,4.05
2018-07-31T11:48:21.615Z,3.92
2018-07-31T11:53:16.237Z,4.60
2018-07-31T11:58:10.621Z,3.55
2018-07-31T12:03:05.503Z,3.72
2018-07-31T12:08:00.064Z,4.95
2018-07-31T12:12:54.938Z,4.80
2018-07-31T12:17:49.548Z,4.60
2018-07-31T12:22:44.152Z,4.30
2018-07-31T12:27:39.063Z,4.10
2018-07-31T12:32:36.646Z,3.92
2018-07-31T12:37:31.254Z,4.17
2018-07-31T12:42:25.995Z,4.37
2018-07-31T12:47:20.615Z,3.77
2018-07-31T12:52:15.668Z,4.65
2018-07-31T12:57:10.382Z,4.05
2018-07-31T13:02:05.095Z,4.08
2018-07-31T13:06:59.896Z,4.28
2018-07-31T13:11:55.960Z,3.90
2018-07-31T13:16:50.666Z,4.00
2018-07-31T13:21:45.291Z,4.10
2018-07-31T13:26:39.899Z,3.85
2018-07-31T13:31:34.691Z,3.92
2018-07-31T13:36:29.543Z,3.80
2018-07-31T13:41:24.210Z,4.30
2018-07-31T13:46:18.929Z,3.87
2018-07-31T13:51:13.527Z,4.08
2018-07-31T13:56:08.267Z,4.00
2018-07-31T14:01:02.890Z,3.90
2018-07-31T14:05:58.124Z,4.00
2018-07-31T14:10:52.825Z,3.75
2018-07-31T14:15:47.515Z,3.98
2018-07-31T14:20:42.316Z,3.77
2018-07-31T14:25:37.013Z,3.80
2018-07-31T14:30:31.828Z,4.40
2018-07-31T14:35:26.570Z,4.20
2018-07-31T14:40:21.204Z,3.75
2018-07-31T14:45:15.882Z,4.03
2018-07-31T14:50:11.943Z,3.65
2018-07-31T14:55:07.183Z,4.37
2018-07-31T15:00:01.791Z,3.47
2018-07-31T15:04:56.987Z,4.05
2018-07-31T15:09:51.591Z,4.20
2018-07-31T15:14:46.228Z,3.15
2018-07-31T15:19:41.115Z,3.83
2018-07-31T15:24:36.065Z,3.35
2018-07-31T15:29:30.736Z,3.80
2018-07-31T15:34:25.556Z,3.02
2018-07-31T15:39:20.662Z,3.30
2018-07-31T15:44:15.305Z,3.70
2018-07-31T15:49:09.959Z,3.37
2018-07-31T15:54:04.771Z,3.35
2018-07-31T15:59:00.321Z,3.20
2018-07-31T16:03:55.675Z,3.72
2018-07-31T16:08:50.256Z,3.50
2018-07-31T16:13:44.948Z,3.30
2018-07-31T16:23:46.992Z,3.50
2018-07-31T16:28:42.662Z,4.45
2018-07-31T16:33:37.541Z,3.98
2018-07-31T16:38:32.456Z,3.35
2018-07-31T16:43:27.112Z,3.65
2018-07-31T16:48:21.746Z,3.17
2018-07-31T16:53:16.423Z,3.37
2018-07-31T16:58:11.214Z,3.35
2018-07-31T17:03:05.851Z,3.30
2018-07-31T17:08:00.534Z,3.58
2018-07-31T17:12:54.990Z,3.30
2018-07-31T17:17:49.624Z,3.50
2018-07-31T17:22:44.615Z,3.22
2018-07-31T17:27:39.769Z,3.50
2018-07-31T17:32:34.472Z,3.30
2018-07-31T17:37:29.633Z,3.62
2018-07-31T17:42:24.436Z,3.50
2018-07-31T17:47:19.231Z,3.62
2018-07-31T17:52:13.895Z,3.33
2018-07-31T17:57:08.747Z,3.60
2018-07-31T18:02:03.564Z,3.55
2018-07-31T18:06:58.226Z,3.80
2018-07-31T18:11:52.920Z,3.45
2018-07-31T18:16:47.661Z,3.58
2018-07-31T18:21:42.566Z,3.58
2018-07-31T18:26:37.387Z,4.00
2018-07-31T18:31:31.997Z,3.98
2018-07-31T18:36:26.631Z,3.87
2018-07-31T18:41:21.432Z,4.17
2018-07-31T18:46:16.112Z,3.87
2018-07-31T18:51:10.753Z,4.85
2018-07-31T18:56:05.684Z,4.20
2018-07-31T19:01:00.511Z,4.20
2018-07-31T19:05:55.137Z,4.60
2018-07-31T19:10:49.964Z,5.05
2018-07-31T19:15:44.736Z,4.05
2018-07-31T19:20:39.270Z,4.87
2018-07-31T19:25:34.122Z,7.00
2018-07-31T19:30:29.295Z,5.22
2018-07-31T19:35:25.419Z,4.70
2018-07-31T19:40:20.205Z,4.78
2018-07-31T19:45:14.843Z,4.80
2018-07-31T19:50:09.584Z,5.10
2018-07-31T19:55:04.549Z,4.85
2018-07-31T19:59:59.240Z,5.25
2018-07-31T20:04:54.004Z,5.47
2018-07-31T20:09:48.821Z,5.00
2018-07-31T20:14:43.416Z,5.03
2018-07-31T20:19:38.179Z,5.45
2018-07-31T20:24:32.936Z,4.70
2018-07-31T20:29:28.342Z,5.15
2018-07-31T20:34:22.995Z,4.72
2018-07-31T20:39:17.887Z,5.10
2018-07-31T20:44:12.612Z,5.37
2018-07-31T20:49:09.206Z,4.28
2018-07-31T20:54:03.923Z,5.20
2018-07-31T20:58:59.539Z,4.90
2018-07-31T21:03:54.352Z,4.40
2018-07-31T21:08:49.446Z,4.90
2018-07-31T21:13:44.138Z,4.80
2018-07-31T21:18:38.887Z,4.42
2018-07-31T21:23:33.505Z,4.28
2018-07-31T21:28:28.302Z,4.15
2018-07-31T21:33:23.198Z,4.60
2018-07-31T21:38:17.853Z,4.40
2018-07-31T21:43:12.651Z,4.25
2018-07-31T21:48:07.396Z,4.40
2018-07-31T21:53:02.983Z,4.83
2018-07-31T21:57:58.012Z,4.65
2018-07-31T22:02:52.793Z,4.15
2018-07-31T22:07:47.417Z,4.25
2018-07-31T22:12:42.050Z,4.35
2018-07-31T22:17:36.781Z,5.03
2018-07-31T22:22:32.105Z,4.80
2018-07-31T22:27:27.130Z,4.87
2018-07-31T22:32:21.804Z,4.97
2018-07-31T22:37:16.467Z,4.05
2018-07-31T22:42:11.083Z,4.90
2018-07-31T22:47:06.140Z,4.20
2018-07-31T22:52:00.849Z,5.15
2018-07-31T22:56:55.563Z,4.95
2018-07-31T23:01:50.240Z,4.92
2018-07-31T23:06:44.875Z,5.08
2018-07-31T23:11:39.608Z,4.45
2018-07-31T23:16:34.605Z,4.05
2018-07-31T23:21:29.317Z,4.67
2018-07-31T23:26:23.918Z,4.95
2018-07-31T23:31:18.621Z,4.97
2018-07-31T23:36:13.402Z,4.78
2018-07-31T23:41:08.248Z,5.15
2018-07-31T23:46:03.027Z,4.90
2018-07-31T23:50:57.641Z,4.45
2018-07-31T23:55:52.336Z,4.92
